Terminal Aerodrome Forecast
Issued by NWS

Home | Current Version | Previous Version | Text Only | Print | Product List | Glossary On
Versions: 1 2 3 4 5 6 7 8 9 10 11 12
000
FTUS41 KPHI 222323
TAFPNE
TAF
KPNE 222323Z 2300/2324 VRB03KT P6SM SCT250
     FM230600 00000KT P6SM SCT030
     FM230900 00000KT 2SM BR SCT007 BKN030
     FM231300 VRB03KT 6SM BR SCT007 BKN025
     FM231400 13004KT P6SM SCT007 BKN020
     FM231900 15010KT P6SM BKN035=

USA.gov is the U.S. government's official web portal to all federal, state and local government web resources and services.